Terminal Aerodrome Forecast
Issued by NWS Charleston, WV

Current Version | Previous Version | Graphics & Text | Print | Product List | Glossary On
Versions: 1 2 3 4 5 6 7 8 9 10 11 12 13 14 15 16 17 18 19 20 21 22 23 24 25
554
FTUS41 KRLX 170540 AAB
TAFCRW
TAF AMD
KCRW 170540Z 1706/1806 VRB03KT 2SM BR VCSH BKN060
     FM170900 16005KT 3SM -SHRA BR OVC060
     FM171500 20008KT P6SM OVC035
     FM171900 22010G16KT 6SM -SHRA OVC035
     FM180200 26007KT P6SM BKN015=

USA.gov is the U.S. government's official web portal to all federal, state and local government web resources and services.